POGODA: Poland

Lotnisko: Katowice

METAR KOD: EPKT


METAR: EPKT 021830Z 03009KT 9999 BKN019 15/13 Q1020


BLOK
Pogoda METAR
021830Z
Dzien: 02, Godzina: 18:30 UTC.
03009KT
Wiatr z kierunku 030, o predkosci 17 km/h
9999
Widzialnosc pozioma ponad 10 km.
BKN019
5/8 - 7/8 pokrycia nieba, chmurami o podstawie: 570 metrow
15/13
Temperatura: powietrze 15°C, punkt rosy 13°C . Wilgotnosc wzgledna 87 %
Q1020
Cisnienie: 1020 hPa

Pogoda na innym lotnisku

Pogoda Gdansk-Rebiechowo WEATHER Poland  
Pogoda Katowice WEATHER Poland  
Pogoda Krakow WEATHER Poland  
Pogoda Poznan WEATHER Poland  
Pogoda Rzeszow-Jasionka WEATHER Poland  
Pogoda Szczecin WEATHER Poland  
Pogoda Warszawa-Okecie WEATHER Poland  
Pogoda Wroclaw Ii WEATHER Poland  

Pogoda w inny kraju

Strona startowa

(C) by GREGOR 2007
Ogłoszenia Towarzyskie